Fantasia — ICJY — position and weather

sailwx.info

Track history (hours):
 
Tides and Currents Weather Stations Pressure Air Temp Water Temp Dewpoint Dewpoint Depression Visibility Wind Speed Wind Dir Waves Ship Positions

Fantasia

Last reported at 2017-Jul-01 16:58 UTC. Time now 2017-Jul-22 16:43 UTC.
Position N 09°14' W 079°55'.
Warning: this ship's position is 20 days out of date.

Length 183 m; draft 10.7 m.

Type: Tanker. MMSI: 247279600.

Date/timePositionNaut miles runAvg speedWind from/ knotsBaromVisibWave heightAir tempDewpointWater temp
2017-Jul-01 16:58N 09°14' W 079°55'2 3.5
2017-Jul-01 16:30N 09°15' W 079°55'1 1.3
2017-Jul-01 16:00N 09°16' W 079°55'0 0.7
2017-Jul-01 15:31N 09°16' W 079°55'0 0.4
2017-Jul-01 15:00N 09°16' W 079°55'1 0.6
2017-Jul-01 14:01N 09°17' W 079°55'3 6.7
2017-Jul-01 13:30N 09°20' W 079°55'3 6.2
2017-Jul-01 13:01N 09°24' W 079°55'3 6.6
2017-Jul-01 12:30N 09°27' W 079°55'2 4.0
2017-Jul-01 11:59N 09°29' W 079°56'0 0.1
2017-Jul-01 11:29N 09°29' W 079°56'0 0.0
2017-Jul-01 10:59N 09°29' W 079°56'0 0.0
2017-Jul-01 10:29N 09°29' W 079°56'0 0.0
2017-Jul-01 09:56N 09°29' W 079°56'0 0.0
2017-Jul-01 09:26N 09°29' W 079°56'0 0.0
2017-Jul-01 08:53N 09°29' W 079°56'0 0.0
2017-Jul-01 08:29N 09°29' W 079°56'0 0.0
2017-Jul-01 07:59N 09°29' W 079°56'0 0.1
2017-Jul-01 07:29N 09°29' W 079°56'0 0.0
2017-Jul-01 06:53N 09°29' W 079°56'0 0.0
2017-Jul-01 06:26N 09°29' W 079°56'0 0.0
2017-Jul-01 05:44N 09°29' W 079°56'0 0.0
2017-Jul-01 05:20N 09°29' W 079°56'0 0.0
2017-Jul-01 04:59N 09°29' W 079°56'0 0.0
2017-Jul-01 04:26N 09°29' W 079°56'0 0.0
2017-Jul-01 03:59N 09°29' W 079°56'0 0.2
2017-Jul-01 03:29N 09°29' W 079°56'1 1.1
2017-Jul-01 03:00N 09°29' W 079°56'4 8.1
2017-Jul-01 02:30N 09°33' W 079°53'  
2017-Jun-25 17:09N 29°21' W 094°47'1 9.0
2017-Jun-25 17:00N 29°22' W 094°48'4 8.4
2017-Jun-25 16:31N 29°26' W 094°50'4 8.2
2017-Jun-25 16:01N 29°30' W 094°52'4 8.8
2017-Jun-25 15:30N 29°33' W 094°55'611.2
2017-Jun-25 15:01N 29°38' W 094°58'9 8.6
2017-Jun-25 14:00N 29°45' W 095°04'3 6.2
2017-Jun-25 13:31N 29°44' W 095°07'3 6.5
2017-Jun-25 13:00N 29°45' W 095°11'  
2017-Jun-22 02:48N 29°45' W 095°11'0 0.2
2017-Jun-22 02:31N 29°45' W 095°11'2 3.3
2017-Jun-22 02:01N 29°44' W 095°09'3 6.9
2017-Jun-22 01:30N 29°45' W 095°06'4 8.4
2017-Jun-22 01:00N 29°43' W 095°01'510.2
2017-Jun-22 00:30N 29°39' W 094°58'612.5
2017-Jun-22 00:01N 29°34' W 094°55'612.5
2017-Jun-21 23:31N 29°28' W 094°51'611.9
2017-Jun-21 23:00N 29°23' W 094°48'  
Track history (hours):
 
Tides and Currents Weather Stations Pressure Air Temp Water Temp Dewpoint Dewpoint Depression Visibility Wind Speed Wind Dir Waves Ship Positions

Fantasia

Last reported at 2017-Jul-01 16:58 UTC. Time now 2017-Jul-22 16:43 UTC.
Position N 09°14' W 079°55'.
Warning: this ship's position is 20 days out of date.

Length 183 m; draft 10.7 m.

Type: Tanker. MMSI: 247279600.

Date/timePositionNaut miles runAvg speedWind from/ knotsBaromVisibWave heightAir tempDewpointWater temp
2017-Jul-01 16:58N 09°14' W 079°55'2 3.5
2017-Jul-01 16:30N 09°15' W 079°55'1 1.3
2017-Jul-01 16:00N 09°16' W 079°55'0 0.7
2017-Jul-01 15:31N 09°16' W 079°55'0 0.4
2017-Jul-01 15:00N 09°16' W 079°55'1 0.6
2017-Jul-01 14:01N 09°17' W 079°55'3 6.7
2017-Jul-01 13:30N 09°20' W 079°55'3 6.2
2017-Jul-01 13:01N 09°24' W 079°55'3 6.6
2017-Jul-01 12:30N 09°27' W 079°55'2 4.0
2017-Jul-01 11:59N 09°29' W 079°56'0 0.1
2017-Jul-01 11:29N 09°29' W 079°56'0 0.0
2017-Jul-01 10:59N 09°29' W 079°56'0 0.0
2017-Jul-01 10:29N 09°29' W 079°56'0 0.0
2017-Jul-01 09:56N 09°29' W 079°56'0 0.0
2017-Jul-01 09:26N 09°29' W 079°56'0 0.0
2017-Jul-01 08:53N 09°29' W 079°56'0 0.0
2017-Jul-01 08:29N 09°29' W 079°56'0 0.0
2017-Jul-01 07:59N 09°29' W 079°56'0 0.1
2017-Jul-01 07:29N 09°29' W 079°56'0 0.0
2017-Jul-01 06:53N 09°29' W 079°56'0 0.0
2017-Jul-01 06:26N 09°29' W 079°56'0 0.0
2017-Jul-01 05:44N 09°29' W 079°56'0 0.0
2017-Jul-01 05:20N 09°29' W 079°56'0 0.0
2017-Jul-01 04:59N 09°29' W 079°56'0 0.0
2017-Jul-01 04:26N 09°29' W 079°56'0 0.0
2017-Jul-01 03:59N 09°29' W 079°56'0 0.2
2017-Jul-01 03:29N 09°29' W 079°56'1 1.1
2017-Jul-01 03:00N 09°29' W 079°56'4 8.1
2017-Jul-01 02:30N 09°33' W 079°53'  
2017-Jun-25 17:09N 29°21' W 094°47'1 9.0
2017-Jun-25 17:00N 29°22' W 094°48'4 8.4
2017-Jun-25 16:31N 29°26' W 094°50'4 8.2
2017-Jun-25 16:01N 29°30' W 094°52'4 8.8
2017-Jun-25 15:30N 29°33' W 094°55'611.2
2017-Jun-25 15:01N 29°38' W 094°58'9 8.6
2017-Jun-25 14:00N 29°45' W 095°04'3 6.2
2017-Jun-25 13:31N 29°44' W 095°07'3 6.5
2017-Jun-25 13:00N 29°45' W 095°11'  
2017-Jun-22 02:48N 29°45' W 095°11'0 0.2
2017-Jun-22 02:31N 29°45' W 095°11'2 3.3
2017-Jun-22 02:01N 29°44' W 095°09'3 6.9
2017-Jun-22 01:30N 29°45' W 095°06'4 8.4
2017-Jun-22 01:00N 29°43' W 095°01'510.2
2017-Jun-22 00:30N 29°39' W 094°58'612.5
2017-Jun-22 00:01N 29°34' W 094°55'612.5
2017-Jun-21 23:31N 29°28' W 094°51'611.9
2017-Jun-21 23:00N 29°23' W 094°48'  

Dump ship's entire track history